Justice — WDG2184 — position and weather

sailwx.info

Track history (hours):
 
Tides and Currents Weather Stations Pressure Air Temp Water Temp Dewpoint Dewpoint Depression Visibility Wind Speed Wind Dir Waves Ship Positions

Justice

Owner: Boston Towing & Transportation, Boston, MA. More information available from US FCC via Universal Licensing System and Coast Guard Vessel Documentation Center.

Last reported at 2014-Nov-19 21:15 UTC. Time now 2014-Nov-22 03:11 UTC.
Position N 41°29' W 070°54'.

Length 30 m; draft 5.8 m.

Type: Tug. MMSI: 367513010.

Date/timePositionNaut miles runAvg speedWind from/ knotsBaromVisibWave heightAir tempDewpointWater temp
2014-Nov-19 21:15N 41°29' W 070°54'710.2
2014-Nov-19 20:34N 41°26' W 071°02'2 0.1
2014-Nov-19 08:29N 41°27' W 071°00'  
2014-Nov-17 04:21N 41°45' W 070°35'13 7.1
2014-Nov-17 02:33N 41°34' W 070°44'7 7.5
2014-Nov-17 01:33N 41°30' W 070°52'1 0.9
2014-Nov-17 00:32N 41°29' W 070°53'6 6.2
2014-Nov-16 23:33N 41°27' W 071°01'1 0.1
2014-Nov-16 13:27N 41°27' W 070°60'1 1.4
2014-Nov-16 12:33N 41°26' W 071°01'8 6.8
2014-Nov-16 11:22N 41°30' W 070°51'  
2014-Nov-13 17:24N 42°23' W 071°03'4 0.6
2014-Nov-13 10:33N 42°20' W 071°00'2 0.1
2014-Nov-12 17:24N 42°20' W 070°57'6 0.8
2014-Nov-12 10:17N 42°15' W 070°58'0 0.0
2014-Nov-12 07:13N 42°15' W 070°58'5 6.9
2014-Nov-12 06:33N 42°19' W 070°56'4 3.9
2014-Nov-12 05:29N 42°21' W 071°01'2 2.5
2014-Nov-12 04:33N 42°20' W 070°58'7 7.3
2014-Nov-12 03:33N 42°19' W 070°48'8 8.5
2014-Nov-12 02:33N 42°13' W 070°40'9 9.2
2014-Nov-12 01:33N 42°05' W 070°34'10 9.2
2014-Nov-12 00:31N 41°56' W 070°30'9 9.0
2014-Nov-11 23:30N 41°47' W 070°29'5 5.7
2014-Nov-11 22:33N 41°45' W 070°36'5 5.1
2014-Nov-11 21:33N 41°41' W 070°41'2 1.7
2014-Nov-11 20:33N 41°43' W 070°39'2 2.1
2014-Nov-11 19:29N 41°44' W 070°37'0 0.0
2014-Nov-11 18:19N 41°44' W 070°37'5 6.5
2014-Nov-11 17:29N 41°40' W 070°41'5 5.3
2014-Nov-11 16:27N 41°35' W 070°43'7 7.9
2014-Nov-11 15:31N 41°30' W 070°51'8 8.4
2014-Nov-11 14:33N 41°27' W 071°01'1 1.1
2014-Nov-11 13:33N 41°27' W 070°60'7 6.8
2014-Nov-11 12:33N 41°31' W 070°52'6 5.8
2014-Nov-11 11:33N 41°34' W 070°45'6 5.9
2014-Nov-11 10:33N 41°39' W 070°41'7 6.8
2014-Nov-11 09:33N 41°45' W 070°36'38 5.1
2014-Nov-11 02:05N 42°20' W 070°57'1 1.8
2014-Nov-11 01:22N 42°20' W 070°58'4 0.3
2014-Nov-10 11:09N 42°24' W 071°01'52 5.4
2014-Nov-10 01:26N 41°33' W 070°46'1010.2
2014-Nov-10 00:29N 41°28' W 070°57'2 1.6
2014-Nov-09 23:33N 41°27' W 070°59'8 7.2
2014-Nov-09 22:28N 41°31' W 070°50'  
Track history (hours):
 
Tides and Currents Weather Stations Pressure Air Temp Water Temp Dewpoint Dewpoint Depression Visibility Wind Speed Wind Dir Waves Ship Positions

Justice

Owner: Boston Towing & Transportation, Boston, MA. More information available from US FCC via Universal Licensing System and Coast Guard Vessel Documentation Center.

Last reported at 2014-Nov-19 21:15 UTC. Time now 2014-Nov-22 03:11 UTC.
Position N 41°29' W 070°54'.

Length 30 m; draft 5.8 m.

Type: Tug. MMSI: 367513010.

Date/timePositionNaut miles runAvg speedWind from/ knotsBaromVisibWave heightAir tempDewpointWater temp
2014-Nov-19 21:15N 41°29' W 070°54'710.2
2014-Nov-19 20:34N 41°26' W 071°02'2 0.1
2014-Nov-19 08:29N 41°27' W 071°00'  
2014-Nov-17 04:21N 41°45' W 070°35'13 7.1
2014-Nov-17 02:33N 41°34' W 070°44'7 7.5
2014-Nov-17 01:33N 41°30' W 070°52'1 0.9
2014-Nov-17 00:32N 41°29' W 070°53'6 6.2
2014-Nov-16 23:33N 41°27' W 071°01'1 0.1
2014-Nov-16 13:27N 41°27' W 070°60'1 1.4
2014-Nov-16 12:33N 41°26' W 071°01'8 6.8
2014-Nov-16 11:22N 41°30' W 070°51'  
2014-Nov-13 17:24N 42°23' W 071°03'4 0.6
2014-Nov-13 10:33N 42°20' W 071°00'2 0.1
2014-Nov-12 17:24N 42°20' W 070°57'6 0.8
2014-Nov-12 10:17N 42°15' W 070°58'0 0.0
2014-Nov-12 07:13N 42°15' W 070°58'5 6.9
2014-Nov-12 06:33N 42°19' W 070°56'4 3.9
2014-Nov-12 05:29N 42°21' W 071°01'2 2.5
2014-Nov-12 04:33N 42°20' W 070°58'7 7.3
2014-Nov-12 03:33N 42°19' W 070°48'8 8.5
2014-Nov-12 02:33N 42°13' W 070°40'9 9.2
2014-Nov-12 01:33N 42°05' W 070°34'10 9.2
2014-Nov-12 00:31N 41°56' W 070°30'9 9.0
2014-Nov-11 23:30N 41°47' W 070°29'5 5.7
2014-Nov-11 22:33N 41°45' W 070°36'5 5.1
2014-Nov-11 21:33N 41°41' W 070°41'2 1.7
2014-Nov-11 20:33N 41°43' W 070°39'2 2.1
2014-Nov-11 19:29N 41°44' W 070°37'0 0.0
2014-Nov-11 18:19N 41°44' W 070°37'5 6.5
2014-Nov-11 17:29N 41°40' W 070°41'5 5.3
2014-Nov-11 16:27N 41°35' W 070°43'7 7.9
2014-Nov-11 15:31N 41°30' W 070°51'8 8.4
2014-Nov-11 14:33N 41°27' W 071°01'1 1.1
2014-Nov-11 13:33N 41°27' W 070°60'7 6.8
2014-Nov-11 12:33N 41°31' W 070°52'6 5.8
2014-Nov-11 11:33N 41°34' W 070°45'6 5.9
2014-Nov-11 10:33N 41°39' W 070°41'7 6.8
2014-Nov-11 09:33N 41°45' W 070°36'38 5.1
2014-Nov-11 02:05N 42°20' W 070°57'1 1.8
2014-Nov-11 01:22N 42°20' W 070°58'4 0.3
2014-Nov-10 11:09N 42°24' W 071°01'52 5.4
2014-Nov-10 01:26N 41°33' W 070°46'1010.2
2014-Nov-10 00:29N 41°28' W 070°57'2 1.6
2014-Nov-09 23:33N 41°27' W 070°59'8 7.2
2014-Nov-09 22:28N 41°31' W 070°50'  

Dump ship's entire track history